createdAt,value
2022-11-22T00:00:42.381Z,97813.16
2022-11-22T00:03:09.786Z,97810.50
2022-11-22T00:05:37.414Z,97796.25
2022-11-22T00:08:04.841Z,97798.69
2022-11-22T00:10:32.301Z,97787.06
2022-11-22T00:12:59.634Z,97781.34
2022-11-22T00:15:26.813Z,97778.50
2022-11-22T00:17:53.866Z,97781.72
2022-11-22T00:20:21.129Z,97783.34
2022-11-22T00:22:48.828Z,97779.69
2022-11-22T00:25:15.997Z,97776.03
2022-11-22T00:27:43.336Z,97772.13
2022-11-22T00:30:10.639Z,97771.91
2022-11-22T00:32:37.668Z,97766.19
2022-11-22T00:35:05.207Z,97771.28
2022-11-22T00:37:32.429Z,97770.25
2022-11-22T00:39:59.397Z,97772.66
2022-11-22T00:42:26.376Z,97778.78
2022-11-22T00:44:53.347Z,97769.03
2022-11-22T00:47:20.345Z,97784.47
2022-11-22T00:49:47.305Z,97784.03
2022-11-22T00:52:14.292Z,97780.38
2022-11-22T00:54:41.530Z,97793.41
2022-11-22T00:57:08.550Z,97792.13
2022-11-22T00:59:35.499Z,97798.69
2022-11-22T01:02:02.563Z,97811.06
2022-11-22T01:04:29.509Z,97821.22
2022-11-22T01:06:56.506Z,97818.16
2022-11-22T01:09:24.373Z,97829.94
2022-11-22T01:11:51.740Z,97823.41
2022-11-22T01:14:19.881Z,97815.81
2022-11-22T01:16:47.670Z,97818.88
2022-11-22T01:19:14.821Z,97816.56
2022-11-22T01:21:41.908Z,97818.81
2022-11-22T01:24:08.975Z,97829.78
2022-11-22T01:26:35.962Z,97828.53
2022-11-22T01:29:03.403Z,97826.47
2022-11-22T01:31:30.481Z,97827.88
2022-11-22T01:33:58.971Z,97828.28
2022-11-22T01:36:27.756Z,97828.84
2022-11-22T01:38:55.220Z,97829.44
2022-11-22T01:41:22.608Z,97831.91
2022-11-22T01:43:49.774Z,97838.59
2022-11-22T01:46:39.385Z,97846.31
2022-11-22T01:49:26.858Z,97839.78
2022-11-22T01:51:59.600Z,97832.44
2022-11-22T01:54:31.605Z,97836.69
2022-11-22T01:57:04.808Z,97847.88
2022-11-22T01:59:35.573Z,97854.03
2022-11-22T02:02:03.686Z,97854.84
2022-11-22T02:04:32.756Z,97852.75
2022-11-22T02:07:27.397Z,97855.41
2022-11-22T02:09:55.222Z,97858.06
2022-11-22T02:12:29.873Z,97856.44
2022-11-22T02:14:57.083Z,97854.38
2022-11-22T02:17:26.862Z,97854.38
2022-11-22T02:19:54.792Z,97848.84
2022-11-22T02:23:13.801Z,97861.31
2022-11-22T02:25:59.740Z,97862.34
2022-11-22T02:28:30.924Z,97861.31
2022-11-22T02:30:58.124Z,97867.22
2022-11-22T02:33:25.083Z,97869.88
2022-11-22T02:35:52.449Z,97876.78
2022-11-22T02:38:26.652Z,97868.63
2022-11-22T02:40:57.124Z,97880.03
2022-11-22T02:43:37.075Z,97883.50
2022-11-22T02:46:10.664Z,97885.34
2022-11-22T02:48:44.931Z,97887.75
2022-11-22T02:51:17.100Z,97891.03
2022-11-22T02:53:44.781Z,97897.94
2022-11-22T02:56:11.921Z,97889.19
2022-11-22T02:58:38.924Z,97886.53
2022-11-22T03:01:06.039Z,97895.06
2022-11-22T03:03:33.230Z,97897.72
2022-11-22T03:06:02.275Z,97901.19
2022-11-22T03:08:29.584Z,97900.38
2022-11-22T03:11:00.168Z,97911.00
2022-11-22T03:13:27.190Z,97908.13
2022-11-22T03:15:54.181Z,97896.69
2022-11-22T03:18:21.745Z,97900.16
2022-11-22T03:20:48.686Z,97895.66
2022-11-22T03:23:15.867Z,97892.78
2022-11-22T03:25:43.063Z,97888.50
2022-11-22T03:28:10.074Z,97889.31
2022-11-22T03:30:41.450Z,97898.31
2022-11-22T03:33:08.721Z,97899.94
2022-11-22T03:35:35.684Z,97906.88
2022-11-22T03:38:02.954Z,97911.16
2022-11-22T03:40:29.986Z,97907.88
2022-11-22T03:43:01.080Z,97907.88
2022-11-22T03:45:31.495Z,97908.13
2022-11-22T03:47:58.454Z,97905.69
2022-11-22T03:50:25.797Z,97917.34
2022-11-22T03:52:52.809Z,97921.59
2022-11-22T03:55:19.874Z,97913.66
2022-11-22T03:57:47.063Z,97917.34
2022-11-22T04:00:15.097Z,97931.63
2022-11-22T04:02:44.088Z,97932.63
2022-11-22T04:05:11.405Z,97942.41
2022-11-22T04:07:38.592Z,97940.81
2022-11-22T04:10:06.854Z,97940.81
2022-11-22T04:12:34.164Z,97948.75
2022-11-22T04:15:07.294Z,97944.50
2022-11-22T04:17:48.067Z,97948.16
2022-11-22T04:20:45.067Z,97951.84
2022-11-22T04:23:18.518Z,97956.34
2022-11-22T04:25:52.026Z,97952.06
2022-11-22T04:28:35.230Z,97939.81
2022-11-22T04:31:29.165Z,97948.81
2022-11-22T04:33:56.075Z,97946.59
2022-11-22T04:36:23.008Z,97946.59
2022-11-22T04:38:49.956Z,97943.34
2022-11-22T04:41:16.874Z,97949.66
2022-11-22T04:44:02.211Z,97949.66
2022-11-22T04:46:31.347Z,97939.50
2022-11-22T04:48:58.272Z,97940.53
2022-11-22T04:51:43.566Z,97937.88
2022-11-22T04:54:10.525Z,97947.06
2022-11-22T04:56:37.507Z,97949.13
2022-11-22T04:59:04.498Z,97946.69
2022-11-22T05:01:31.559Z,97945.88
2022-11-22T05:03:58.602Z,97943.66
2022-11-22T05:06:25.603Z,97952.63
2022-11-22T05:08:52.621Z,97960.81
2022-11-22T05:11:19.725Z,97958.56
2022-11-22T05:13:46.674Z,97963.28
2022-11-22T05:16:15.436Z,97952.88
2022-11-22T05:18:42.578Z,97963.72
2022-11-22T05:21:14.431Z,97959.41
2022-11-22T05:23:56.832Z,97964.94
2022-11-22T05:26:32.882Z,97965.38
2022-11-22T05:29:08.114Z,97962.31
2022-11-22T05:31:37.581Z,97959.88
2022-11-22T05:34:05.211Z,97960.31
2022-11-22T05:36:34.358Z,97963.38
2022-11-22T05:39:02.288Z,97971.34
2022-11-22T05:41:29.267Z,97977.25
2022-11-22T05:43:57.443Z,97984.63
2022-11-22T05:46:28.382Z,97988.50
2022-11-22T05:48:57.744Z,97984.44
2022-11-22T05:51:32.497Z,97991.19
2022-11-22T05:54:02.494Z,97997.69
2022-11-22T05:56:29.466Z,97997.31
2022-11-22T05:58:56.411Z,98008.09
2022-11-22T06:01:24.806Z,98005.63
2022-11-22T06:03:52.232Z,98010.13
2022-11-22T06:06:20.555Z,98014.59
2022-11-22T06:08:48.718Z,98018.28
2022-11-22T06:11:25.530Z,98026.22
2022-11-22T06:13:58.614Z,98028.88
2022-11-22T06:16:26.922Z,98031.53
2022-11-22T06:18:54.494Z,98038.44
2022-11-22T06:21:24.587Z,98039.47
2022-11-22T06:23:53.700Z,98040.50
2022-11-22T06:26:22.220Z,98038.66
2022-11-22T06:28:49.971Z,98043.97
2022-11-22T06:31:25.980Z,98046.81
2022-11-22T06:33:59.623Z,98043.16
2022-11-22T06:36:32.133Z,98057.19
2022-11-22T06:39:00.089Z,98037.84
2022-11-22T06:41:33.857Z,98046.81
2022-11-22T06:44:08.313Z,98046.81
2022-11-22T06:46:36.758Z,98057.41
2022-11-22T06:49:04.248Z,98058.44
2022-11-22T06:51:32.430Z,98071.69
2022-11-22T06:53:59.672Z,98069.84
2022-11-22T06:56:41.350Z,98078.81
2022-11-22T06:59:09.133Z,98084.94
2022-11-22T07:01:37.500Z,98085.91
2022-11-22T07:04:05.721Z,98085.09
2022-11-22T07:06:38.577Z,98081.66
2022-11-22T07:09:09.542Z,98089.59
2022-11-22T07:11:37.096Z,98097.75
2022-11-22T07:14:08.389Z,98090.03
2022-11-22T07:16:38.262Z,98097.38
2022-11-22T07:19:06.736Z,98098.19
2022-11-22T07:21:34.938Z,98105.91
2022-11-22T07:24:03.965Z,98100.63
2022-11-22T07:26:30.920Z,98111.22
2022-11-22T07:28:57.885Z,98106.50
2022-11-22T07:31:26.036Z,98110.78
2022-11-22T07:33:52.973Z,98115.25
2022-11-22T07:36:22.069Z,98125.88
2022-11-22T07:38:50.691Z,98136.44
2022-11-22T07:41:18.986Z,98133.81
2022-11-22T07:43:46.989Z,98133.59
2022-11-22T07:46:32.966Z,98133.59
2022-11-22T07:49:02.551Z,98137.91
2022-11-22T07:51:30.366Z,98140.53
2022-11-22T07:53:57.923Z,98151.13
2022-11-22T07:56:24.903Z,98146.66
2022-11-22T07:58:51.986Z,98153.78
2022-11-22T08:01:20.873Z,98158.06
2022-11-22T08:03:47.847Z,98162.34
2022-11-22T08:06:15.657Z,98165.78
2022-11-22T08:08:42.602Z,98173.53
2022-11-22T08:11:10.888Z,98164.56
2022-11-22T08:13:38.330Z,98169.66
2022-11-22T08:16:10.736Z,98164.19
2022-11-22T08:18:39.005Z,98165.00
2022-11-22T08:21:13.043Z,98162.97
2022-11-22T08:23:41.352Z,98165.38
2022-11-22T08:26:12.391Z,98162.56
2022-11-22T08:28:39.810Z,98156.44
2022-11-22T08:31:14.373Z,98166.63
2022-11-22T08:33:41.571Z,98169.06
2022-11-22T08:36:09.002Z,98176.81
2022-11-22T08:38:36.126Z,98173.75
2022-11-22T08:41:04.170Z,98178.03
2022-11-22T08:43:31.939Z,98175.97
2022-11-22T08:46:00.010Z,98174.75
2022-11-22T08:48:28.385Z,98168.22
2022-11-22T08:51:01.833Z,98170.66
2022-11-22T08:53:32.343Z,98169.22
2022-11-22T08:56:01.365Z,98173.50
2022-11-22T08:58:35.859Z,98172.31
2022-11-22T09:01:17.451Z,98186.97
2022-11-22T09:03:45.544Z,98183.28
2022-11-22T09:09:30.470Z,98176.34
2022-11-22T09:11:53.537Z,98184.91
2022-11-22T09:14:20.441Z,98181.22
2022-11-22T09:16:47.378Z,98180.00
2022-11-22T09:19:14.337Z,98177.13
2022-11-22T09:21:41.269Z,98171.41
2022-11-22T09:24:08.257Z,98170.19
2022-11-22T09:26:35.309Z,98167.31
2022-11-22T09:29:02.981Z,98180.19
2022-11-22T09:31:31.754Z,98179.75
2022-11-22T09:33:58.680Z,98185.66
2022-11-22T09:36:26.584Z,98183.63
2022-11-22T09:38:56.075Z,98182.16
2022-11-22T09:42:33.736Z,98184.59
2022-11-22T09:45:38.544Z,98177.66
2022-11-22T09:48:27.913Z,98171.31
2022-11-22T09:51:12.382Z,98165.19
2022-11-22T09:54:16.057Z,98165.41
2022-11-22T09:56:44.494Z,98169.06
2022-11-22T09:59:15.435Z,98167.81
2022-11-22T10:02:03.462Z,98165.78
2022-11-22T10:04:51.696Z,98174.34
2022-11-22T10:07:30.940Z,98173.91
2022-11-22T10:10:20.922Z,98176.16
2022-11-22T10:12:59.382Z,98174.09
2022-11-22T10:15:50.032Z,98173.88
2022-11-22T10:18:31.368Z,98167.94
2022-11-22T10:20:58.347Z,98173.66
2022-11-22T10:23:27.025Z,98172.84
2022-11-22T10:26:00.184Z,98178.97
2022-11-22T10:28:41.552Z,98173.22
2022-11-22T10:31:30.317Z,98172.81
2022-11-22T10:34:15.128Z,98171.16
2022-11-22T10:36:57.005Z,98180.56
2022-11-22T10:40:00.948Z,98186.25
2022-11-22T10:42:49.768Z,98185.84
2022-11-22T10:45:42.766Z,98189.91
2022-11-22T10:48:33.784Z,98192.56
2022-11-22T10:51:41.631Z,98185.00
2022-11-22T10:54:42.188Z,98192.53
2022-11-22T10:57:46.700Z,98189.66
2022-11-22T11:00:25.045Z,98189.03
2022-11-22T11:03:36.122Z,98175.16
2022-11-22T11:06:56.900Z,98173.91
2022-11-22T11:12:53.853Z,98173.88
2022-11-22T11:16:03.906Z,98177.13
2022-11-22T11:18:42.529Z,98175.69
2022-11-22T11:21:14.163Z,98171.78
2022-11-22T11:23:42.301Z,98164.19
2022-11-22T11:26:25.449Z,98160.28
2022-11-22T11:29:18.151Z,98162.31
2022-11-22T11:31:51.532Z,98168.66
2022-11-22T11:34:26.020Z,98155.97
2022-11-22T11:36:57.045Z,98152.09
2022-11-22T11:39:29.044Z,98155.69
2022-11-22T11:41:57.657Z,98149.38
2022-11-22T11:44:29.195Z,98152.84
2022-11-22T11:46:56.451Z,98148.50
2022-11-22T11:49:30.362Z,98152.34
2022-11-22T11:52:22.526Z,98149.09
2022-11-22T11:54:56.924Z,98145.78
2022-11-22T11:57:34.972Z,98140.41
2022-11-22T12:00:18.970Z,98139.81
2022-11-22T12:02:47.817Z,98141.03
2022-11-22T12:05:14.681Z,98135.94
2022-11-22T12:07:45.486Z,98132.59
2022-11-22T12:11:01.188Z,98133.56
2022-11-22T12:14:12.474Z,98128.03
2022-11-22T12:16:56.542Z,98128.03
2022-11-22T12:19:58.666Z,98126.00
2022-11-22T12:23:02.820Z,98121.50
2022-11-22T12:25:38.486Z,98122.88
2022-11-22T12:28:27.394Z,98112.84
2022-11-22T12:31:15.493Z,98112.63
2022-11-22T12:33:47.757Z,98107.91
2022-11-22T12:36:22.928Z,98096.81
2022-11-22T12:38:53.309Z,98099.28
2022-11-22T12:41:25.482Z,98097.63
2022-11-22T12:44:06.957Z,98097.22
2022-11-22T12:46:41.790Z,98093.13
2022-11-22T12:49:41.529Z,98096.75
2022-11-22T12:52:43.806Z,98096.31
2022-11-22T12:55:35.145Z,98102.44
2022-11-22T12:58:33.486Z,98094.25
2022-11-22T13:01:27.013Z,98093.22
2022-11-22T13:04:03.763Z,98087.47
2022-11-22T13:06:56.948Z,98096.47
2022-11-22T13:09:35.278Z,98096.03
2022-11-22T13:12:16.589Z,98088.50
2022-11-22T13:14:54.923Z,98088.50
2022-11-22T13:17:30.002Z,98094.97
2022-11-22T13:20:06.554Z,98094.63
2022-11-22T13:22:59.709Z,98092.16
2022-11-22T13:25:58.418Z,98098.53
2022-11-22T13:28:32.338Z,98091.16
2022-11-22T13:31:11.464Z,98088.50
2022-11-22T13:33:57.745Z,98095.44
2022-11-22T13:36:27.669Z,98098.53
2022-11-22T13:39:04.482Z,98095.88
2022-11-22T13:41:39.676Z,98104.06
2022-11-22T13:44:30.971Z,98103.09
2022-11-22T13:47:25.337Z,98102.75
2022-11-22T13:49:53.856Z,98095.13
2022-11-22T13:52:20.690Z,98105.34
2022-11-22T13:54:47.628Z,98106.72
2022-11-22T13:57:35.613Z,98098.28
2022-11-22T14:00:14.623Z,98102.81
2022-11-22T14:03:13.598Z,98091.00
2022-11-22T14:05:51.545Z,98093.50
2022-11-22T14:08:40.241Z,98091.44
2022-11-22T14:11:39.057Z,98094.72
2022-11-22T14:14:52.309Z,98096.75
2022-11-22T14:18:08.089Z,98092.63
2022-11-22T14:21:00.161Z,98097.72
2022-11-22T14:23:57.598Z,98105.09
2022-11-22T14:27:08.090Z,98099.41
2022-11-22T14:30:51.719Z,98104.06
2022-11-22T14:33:25.815Z,98110.66
2022-11-22T14:36:07.872Z,98114.94
2022-11-22T14:38:38.590Z,98108.00
2022-11-22T14:41:27.495Z,98115.16
2022-11-22T14:44:18.413Z,98115.34
2022-11-22T14:46:56.955Z,98128.22
2022-11-22T14:49:48.022Z,98129.84
2022-11-22T14:52:25.591Z,98136.44
2022-11-22T14:55:02.582Z,98142.41
2022-11-22T14:57:33.474Z,98146.66
2022-11-22T15:00:17.820Z,98145.47
2022-11-22T15:03:36.412Z,98143.03
2022-11-22T15:09:12.136Z,98151.47
2022-11-22T15:09:52.459Z,98148.81
2022-11-22T15:12:58.428Z,98148.41
2022-11-22T15:57:35.735Z,98214.44
2022-11-22T16:00:08.774Z,98209.94
2022-11-22T16:02:47.233Z,98207.03
2022-11-22T16:06:10.357Z,98211.56
2022-11-22T16:08:04.668Z,98224.63
2022-11-22T16:10:40.077Z,98226.25
2022-11-22T16:13:34.308Z,98234.06
2022-11-22T16:16:07.328Z,98233.25
2022-11-22T16:18:34.365Z,98229.97
2022-11-22T16:21:12.277Z,98232.03
2022-11-22T16:23:41.130Z,98232.03
2022-11-22T16:26:31.108Z,98238.22
2022-11-22T16:29:32.307Z,98238.66
2022-11-22T16:32:01.346Z,98227.41
2022-11-22T16:34:28.287Z,98234.97
2022-11-22T16:36:55.236Z,98240.69
2022-11-22T16:39:22.800Z,98248.88
2022-11-22T16:41:50.024Z,98246.44
2022-11-22T16:44:19.604Z,98241.53
2022-11-22T16:46:47.572Z,98243.19
2022-11-22T16:49:19.564Z,98251.34
2022-11-22T16:51:48.512Z,98246.69
2022-11-22T16:54:20.813Z,98246.06
2022-11-22T16:56:48.001Z,98251.81
2022-11-22T16:59:15.278Z,98265.09
2022-11-22T17:01:43.734Z,98267.75
2022-11-22T17:04:26.112Z,98268.38
2022-11-22T17:06:53.834Z,98274.31
2022-11-22T17:09:20.941Z,98271.47
2022-11-22T17:11:48.045Z,98272.69
2022-11-22T17:14:16.881Z,98274.34
2022-11-22T17:16:45.820Z,98273.34
2022-11-22T17:22:00.798Z,98282.72
2022-11-22T17:24:27.881Z,98271.50
2022-11-22T17:26:54.896Z,98276.81
2022-11-22T17:29:49.162Z,98287.03
2022-11-22T17:32:15.107Z,98286.22
2022-11-22T17:34:42.029Z,98281.94
2022-11-22T17:37:12.680Z,98288.28
2022-11-22T17:39:40.115Z,98290.94
2022-11-22T17:42:07.123Z,98288.50
2022-11-22T17:44:34.103Z,98277.88
2022-11-22T17:47:01.390Z,98280.53
2022-11-22T17:49:28.992Z,98277.66
2022-11-22T17:51:56.270Z,98278.06
2022-11-22T17:54:23.212Z,98268.28
2022-11-22T17:56:50.310Z,98276.44
2022-11-22T17:59:17.613Z,98280.13
2022-11-22T18:01:44.789Z,98277.25
2022-11-22T18:04:11.791Z,98277.47
2022-11-22T18:06:38.763Z,98280.13
2022-11-22T18:09:05.762Z,98284.84
2022-11-22T18:11:32.857Z,98288.09
2022-11-22T18:13:59.779Z,98287.50
2022-11-22T18:16:28.816Z,98293.63
2022-11-22T18:18:58.051Z,98294.41
2022-11-22T18:21:30.901Z,98290.97
2022-11-22T18:24:01.792Z,98292.78
2022-11-22T18:26:39.314Z,98296.47
2022-11-22T18:29:40.733Z,98295.66
2022-11-22T18:31:55.644Z,98302.81
2022-11-22T18:34:23.136Z,98313.44
2022-11-22T18:37:01.897Z,98314.44
2022-11-22T18:39:36.849Z,98321.59
2022-11-22T18:42:07.656Z,98311.19
2022-11-22T18:44:34.922Z,98308.53
2022-11-22T18:47:01.893Z,98318.53
2022-11-22T18:49:29.218Z,98307.94
2022-11-22T18:51:56.633Z,98307.53
2022-11-22T18:54:23.984Z,98310.19
2022-11-22T18:56:51.556Z,98311.19
2022-11-22T18:59:19.070Z,98314.28
2022-11-22T19:01:46.425Z,98311.00
2022-11-22T19:04:15.131Z,98317.56
2022-11-22T19:06:42.838Z,98316.97
2022-11-22T19:09:10.661Z,98323.25
2022-11-22T19:11:37.880Z,98326.94
2022-11-22T19:14:05.474Z,98322.66
2022-11-22T19:16:32.590Z,98331.06
2022-11-22T19:19:00.060Z,98330.41
2022-11-22T19:21:28.747Z,98328.78
2022-11-22T19:23:57.202Z,98322.91
2022-11-22T19:26:26.890Z,98319.63
2022-11-22T19:28:56.009Z,98328.00
2022-11-22T19:31:29.493Z,98328.00
2022-11-22T19:33:59.914Z,98322.09
2022-11-22T19:36:33.378Z,98325.56
2022-11-22T19:39:03.359Z,98330.06
2022-11-22T19:41:31.003Z,98322.91
2022-11-22T19:43:58.510Z,98324.75
2022-11-22T19:46:25.965Z,98327.41
2022-11-22T19:48:56.262Z,98329.22
2022-11-22T19:51:24.732Z,98324.75
2022-11-22T19:53:59.927Z,98331.06
2022-11-22T19:56:30.517Z,98335.75
2022-11-22T19:58:59.744Z,98340.25
2022-11-22T20:01:29.831Z,98343.09
2022-11-22T20:04:01.361Z,98338.81
2022-11-22T20:06:29.592Z,98344.34
2022-11-22T20:09:09.778Z,98349.03
2022-11-22T20:11:40.982Z,98341.28
2022-11-22T20:14:09.391Z,98339.06
2022-11-22T20:16:41.035Z,98355.97
2022-11-22T20:19:09.690Z,98348.22
2022-11-22T20:21:37.885Z,98355.34
2022-11-22T20:24:06.644Z,98349.22
2022-11-22T20:26:34.364Z,98345.97
2022-11-22T20:29:08.057Z,98353.94
2022-11-22T20:31:37.215Z,98355.78
2022-11-22T20:34:05.012Z,98348.84
2022-11-22T20:36:34.291Z,98360.66
2022-11-22T20:39:05.531Z,98361.47
2022-11-22T20:41:36.183Z,98361.69
2022-11-22T20:44:03.276Z,98368.81
2022-11-22T20:46:30.626Z,98370.88
2022-11-22T20:48:58.143Z,98380.66
2022-11-22T20:51:28.612Z,98382.50
2022-11-22T20:53:56.287Z,98379.03
2022-11-22T20:56:23.929Z,98384.53
2022-11-22T20:58:50.950Z,98397.78
2022-11-22T21:01:24.267Z,98392.47
2022-11-22T21:03:53.063Z,98397.78
2022-11-22T21:06:22.797Z,98399.81
2022-11-22T21:08:50.482Z,98389.22
2022-11-22T21:11:27.556Z,98389.63
2022-11-22T21:13:56.516Z,98393.28
2022-11-22T21:16:27.400Z,98396.13
2022-11-22T21:19:04.918Z,98399.00
2022-11-22T21:21:35.594Z,98398.19
2022-11-22T21:24:05.239Z,98408.78
2022-11-22T21:26:33.434Z,98406.34
2022-11-22T21:29:01.134Z,98410.63
2022-11-22T21:31:28.324Z,98420.59
2022-11-22T21:33:55.385Z,98414.47
2022-11-22T21:36:22.741Z,98419.59
2022-11-22T21:38:49.730Z,98419.78
2022-11-22T21:44:08.905Z,98427.94
2022-11-22T21:46:35.991Z,98427.13
2022-11-22T21:49:02.964Z,98427.94
2022-11-22T21:51:30.040Z,98422.63
2022-11-22T21:53:58.868Z,98423.44
2022-11-22T21:56:26.787Z,98425.88
2022-11-22T21:58:53.835Z,98430.19
2022-11-22T22:01:20.865Z,98428.38
2022-11-22T22:03:47.878Z,98427.56
2022-11-22T22:06:14.934Z,98430.81
2022-11-22T22:08:41.951Z,98430.81
2022-11-22T22:11:08.911Z,98425.50
2022-11-22T22:13:36.002Z,98433.25
2022-11-22T22:16:12.709Z,98429.56
2022-11-22T22:18:39.969Z,98425.09
2022-11-22T22:21:09.427Z,98428.38
2022-11-22T22:23:38.789Z,98432.66
2022-11-22T22:26:08.584Z,98425.50
2022-11-22T22:28:37.433Z,98433.06
2022-11-22T22:31:28.356Z,98432.88
2022-11-22T22:33:57.357Z,98430.00
2022-11-22T22:36:26.322Z,98429.00
2022-11-22T22:38:54.955Z,98433.28
2022-11-22T22:41:22.158Z,98443.50
2022-11-22T22:43:49.606Z,98434.50
2022-11-22T22:46:20.376Z,98435.13
2022-11-22T22:48:48.959Z,98434.09
2022-11-22T22:51:19.754Z,98434.91
2022-11-22T22:53:47.522Z,98432.88
2022-11-22T22:56:17.737Z,98436.97
2022-11-22T22:58:44.869Z,98442.03
2022-11-22T23:01:21.543Z,98443.69
2022-11-22T23:03:54.883Z,98451.44
2022-11-22T23:06:23.442Z,98445.94
2022-11-22T23:08:52.051Z,98443.06
2022-11-22T23:11:43.913Z,98436.16
2022-11-22T23:14:13.969Z,98450.44
2022-11-22T23:16:41.472Z,98448.81
2022-11-22T23:19:09.230Z,98454.91
2022-11-22T23:21:36.790Z,98452.28
2022-11-22T23:24:04.476Z,98443.50
2022-11-22T23:26:31.710Z,98433.88
2022-11-22T23:28:59.687Z,98444.69
2022-11-22T23:31:27.463Z,98443.06
2022-11-22T23:33:54.747Z,98440.41
2022-11-22T23:36:22.888Z,98441.44
2022-11-22T23:38:50.074Z,98442.47
2022-11-22T23:41:23.330Z,98448.78
2022-11-22T23:43:55.923Z,98455.09
2022-11-22T23:46:26.777Z,98456.94
2022-11-22T23:48:56.537Z,98458.78
2022-11-22T23:51:24.977Z,98457.94
2022-11-22T23:54:00.012Z,98463.25
2022-11-22T23:56:28.639Z,98458.78
2022-11-22T23:58:57.678Z,98458.78
